Aérodrome :
LOGIN :

S'inscrire | Disclaimer

   EN    FR    IT 

 










Légende :    VFR   VFR Marginal   IFR   IFR Intensif   IFR Très Intensif
Visi : 
Plafond : 
>= 8 km
>= 3000ft
5 à 8 km
1000 à 3000 ft
1500m à 5 km
500 à 1000 ft
800 à 1500m
200 à 500 ft
< 800m
< 200 ft
Symboles :   Orages  Brouillard  Fortes neiges  Fortes précipitations  Vent > 20 kt
SIGMETs :   Divers  Orages  Givrage  Turbulence  Onde Orograph.  Cendres Volcan.







- Altitude de l'aérodrome : 325 ft
- Code IATA : POX
- Voir les cartes d'approche


LFPT - Pontoise

DERNIER METAR :
  • 161530Z AUTO 29015KT 9999 -RA FEW019/// BKN030/// BKN036/// ///CB 06/04 Q1002

METARs EXPIRÉS :
  • 161500Z AUTO 31015G28KT 280V340 7000 -RA FEW016/// BKN021/// BKN026/// ///CB 06/04 Q1001
  • 161430Z AUTO 27014G26KT 230V290 9999 FEW028/// BKN033/// BKN040/// ///TCU 09/05 Q1001
  • 161400Z AUTO 27013KT 9999 SCT030 BKN038 BKN045 08/04 Q1001
  • 161330Z AUTO 26018G30KT 220V290 9999 FEW023/// BKN029/// BKN037/// ///TCU 09/04 Q1001
  • 161300Z AUTO 28018KT 9999 -RA SCT030 BKN035 BKN042 08/04 Q1002

TAF N/A
ATIS : +33 1 30 30 52 08
Pas de NOTAMs connus pour ce terrain.
2 SIGMETs publiés pour la FIR Paris (LFFF) :
 
Turbulence forte
LFFF SIGMET 6 VALID 161600/162000 LFPW
LFFF PARIS FIR/UIR SEV TURB FCST NW OF LINE N5045 E00245 - N4915 W00015 SFC/FL060 STNR NC=
Turbulence forte
LFFF SIGMET 5 VALID 161200/161600 LFPW
LFFF PARIS FIR/UIR SEV TURB FCST WI N4915 W00015 - N5000 W00015 - N5115 E00200 - N5045 E00245 - N4915 W00015 SFC/FL060 STNR NC=



MET'MAP, la Météo Aéronautique d'un coup d'oeil ! - Copyright ORBIFLY Décembre 2007 - Disclaimer

ORBIFLY MET'MAP TEAM :

Programmation & Développement : Alexandra Zaïnal
Conception & Développement : Baudouin d'Aumeries
Co-Programmation & Développement : Marc-Olivier Méhu
Soutien technique & logistique : Manuel Goepfert

Contact : metmap@orbifly.com




SOURCES & CREDITS :

   NOAA